General Roca, Argentina
Current Conditions -  °F | °C
As of 12:00 PM on Sunday 21 Dec 2014 (Local Time) from SAAR Reporting Station
Clear Clear  
Wind Chill: 73°   Ceiling: Unl
Heat Index: 73°   Visibility: 6mi
Dew Point: 46°   Wind: 17mph
Humidity: 38%   Direction: 180°S
Pressure: 29.8"   Gusts: NA
Location:  32.73°S, 61.92°W
Report Text: SAAR 211500Z 18015KT CAVOK 23/08 Q1009
Loading
Personal Weather Stations






























Interactive Weather Map New forecast layout! Learn more

10-Day Weather Forecast

Advertisements
Track Severe Weather on mobile